Terminal Aerodrome Forecast
Issued by NWS Boston, MA

Home | Current Version | Previous Version | Text Only | Print | Product List | Glossary On
Versions: 1 2 3 4 5 6 7 8 9 10 11 12 13 14 15 16 17 18 19 20 21 22 23 24
000
FTUS41 KBOX 270722 AAB
TAFPVD
TAF AMD
KPVD 270722Z 2707/2806 11005KT P6SM VCSH OVC013
     FM271100 10006KT 3SM -RA BR OVC015
     FM271500 14007KT 1 1/2SM -RA BR OVC008
     FM271800 16007KT 1 1/2SM -RA BR OVC003
     FM272200 19004KT 1SM -SHRA BR OVC003
     FM280000 VRB03KT 3SM BR OVC003
     FM280200 VRB03KT 6SM BR OVC050=

USA.gov is the U.S. government's official web portal to all federal, state and local government web resources and services.